sensor_id;sensor_type;location;lat;lon;timestamp;temperature;humidity
12452;DHT22;6291;48.924;12.204;2023-02-28T00:00:51;-1.80;99.90
12452;DHT22;6291;48.924;12.204;2023-02-28T00:05:54;-1.90;99.90
12452;DHT22;6291;48.924;12.204;2023-02-28T00:11:02;-1.90;99.90
12452;DHT22;6291;48.924;12.204;2023-02-28T00:16:08;-1.90;99.90
12452;DHT22;6291;48.924;12.204;2023-02-28T00:21:12;-1.90;99.90
12452;DHT22;6291;48.924;12.204;2023-02-28T00:26:16;-1.90;99.90
12452;DHT22;6291;48.924;12.204;2023-02-28T00:31:23;-1.90;99.90
12452;DHT22;6291;48.924;12.204;2023-02-28T00:36:27;-2.00;99.90
12452;DHT22;6291;48.924;12.204;2023-02-28T00:41:32;-2.00;99.90
12452;DHT22;6291;48.924;12.204;2023-02-28T00:46:35;-2.00;99.90
12452;DHT22;6291;48.924;12.204;2023-02-28T00:51:38;-2.10;99.90
12452;DHT22;6291;48.924;12.204;2023-02-28T00:56:43;-2.10;99.90
12452;DHT22;6291;48.924;12.204;2023-02-28T01:01:48;-2.10;99.90
12452;DHT22;6291;48.924;12.204;2023-02-28T01:06:51;-2.10;99.90
12452;DHT22;6291;48.924;12.204;2023-02-28T01:11:56;-2.10;99.90
12452;DHT22;6291;48.924;12.204;2023-02-28T01:16:59;-2.10;99.90
12452;DHT22;6291;48.924;12.204;2023-02-28T01:22:03;-2.10;99.90
12452;DHT22;6291;48.924;12.204;2023-02-28T01:27:08;-2.20;99.90
12452;DHT22;6291;48.924;12.204;2023-02-28T01:32:11;-2.20;99.90
12452;DHT22;6291;48.924;12.204;2023-02-28T01:37:15;-2.20;99.90
12452;DHT22;6291;48.924;12.204;2023-02-28T01:42:20;-2.30;99.90
12452;DHT22;6291;48.924;12.204;2023-02-28T01:47:25;-2.30;99.90
12452;DHT22;6291;48.924;12.204;2023-02-28T01:52:31;-2.20;99.90
12452;DHT22;6291;48.924;12.204;2023-02-28T01:57:39;-0.30;99.90
12452;DHT22;6291;48.924;12.204;2023-02-28T02:02:47;-2.20;99.90
12452;DHT22;6291;48.924;12.204;2023-02-28T02:07:55;-2.20;99.90
12452;DHT22;6291;48.924;12.204;2023-02-28T02:13:10;-2.20;99.90
12452;DHT22;6291;48.924;12.204;2023-02-28T02:18:25;-2.20;99.90
12452;DHT22;6291;48.924;12.204;2023-02-28T02:29:57;-2.20;99.90
12452;DHT22;6291;48.924;12.204;2023-02-28T02:35:12;-2.20;99.90
12452;DHT22;6291;48.924;12.204;2023-02-28T02:40:19;-2.30;99.90
12452;DHT22;6291;48.924;12.204;2023-02-28T02:45:25;-2.30;99.90
12452;DHT22;6291;48.924;12.204;2023-02-28T02:50:35;-2.30;99.90
12452;DHT22;6291;48.924;12.204;2023-02-28T02:55:41;-2.30;99.90
12452;DHT22;6291;48.924;12.204;2023-02-28T03:00:51;-2.30;99.90
12452;DHT22;6291;48.924;12.204;2023-02-28T03:05:58;-2.30;99.90
12452;DHT22;6291;48.924;12.204;2023-02-28T03:11:03;-2.30;99.90
12452;DHT22;6291;48.924;12.204;2023-02-28T03:16:23;-2.30;99.90
12452;DHT22;6291;48.924;12.204;2023-02-28T03:21:35;-2.40;99.90
12452;DHT22;6291;48.924;12.204;2023-02-28T03:26:43;-2.10;99.90
12452;DHT22;6291;48.924;12.204;2023-02-28T03:31:51;-2.40;99.90
12452;DHT22;6291;48.924;12.204;2023-02-28T03:37:00;-2.50;99.90
12452;DHT22;6291;48.924;12.204;2023-02-28T03:42:08;-2.50;99.90
12452;DHT22;6291;48.924;12.204;2023-02-28T03:47:15;-2.50;99.90
12452;DHT22;6291;48.924;12.204;2023-02-28T03:52:23;-2.40;99.90
12452;DHT22;6291;48.924;12.204;2023-02-28T03:57:34;-2.60;99.90
12452;DHT22;6291;48.924;12.204;2023-02-28T04:02:39;-2.60;99.90
12452;DHT22;6291;48.924;12.204;2023-02-28T04:07:44;-2.60;99.90
12452;DHT22;6291;48.924;12.204;2023-02-28T04:12:47;-2.60;99.90
12452;DHT22;6291;48.924;12.204;2023-02-28T04:17:51;-2.50;99.90
12452;DHT22;6291;48.924;12.204;2023-02-28T04:22:56;-2.60;99.90
12452;DHT22;6291;48.924;12.204;2023-02-28T04:27:59;-2.60;99.90
12452;DHT22;6291;48.924;12.204;2023-02-28T04:33:03;-2.60;99.90
12452;DHT22;6291;48.924;12.204;2023-02-28T04:38:07;-2.60;99.90
12452;DHT22;6291;48.924;12.204;2023-02-28T04:43:10;-2.60;99.90
12452;DHT22;6291;48.924;12.204;2023-02-28T04:48:14;-2.40;99.90
12452;DHT22;6291;48.924;12.204;2023-02-28T04:53:19;-2.60;99.90
12452;DHT22;6291;48.924;12.204;2023-02-28T04:58:22;-2.50;99.90
12452;DHT22;6291;48.924;12.204;2023-02-28T05:03:26;-2.30;99.90
12452;DHT22;6291;48.924;12.204;2023-02-28T05:08:31;-2.50;99.90
12452;DHT22;6291;48.924;12.204;2023-02-28T05:13:34;-2.50;99.90
12452;DHT22;6291;48.924;12.204;2023-02-28T05:18:37;-2.50;99.90
12452;DHT22;6291;48.924;12.204;2023-02-28T05:23:42;-2.50;99.90
12452;DHT22;6291;48.924;12.204;2023-02-28T05:28:48;-2.50;99.90
12452;DHT22;6291;48.924;12.204;2023-02-28T05:33:51;-2.60;99.90
12452;DHT22;6291;48.924;12.204;2023-02-28T05:38:56;-2.50;99.90
12452;DHT22;6291;48.924;12.204;2023-02-28T05:43:59;-2.50;99.90
12452;DHT22;6291;48.924;12.204;2023-02-28T05:49:03;-2.50;99.90
12452;DHT22;6291;48.924;12.204;2023-02-28T05:54:08;-1.80;99.90
12452;DHT22;6291;48.924;12.204;2023-02-28T05:59:14;-2.60;99.90
12452;DHT22;6291;48.924;12.204;2023-02-28T06:04:19;-2.50;99.90
12452;DHT22;6291;48.924;12.204;2023-02-28T06:09:34;-2.50;99.90
12452;DHT22;6291;48.924;12.204;2023-02-28T06:14:37;-2.50;99.90
12452;DHT22;6291;48.924;12.204;2023-02-28T06:19:41;-2.50;99.90
12452;DHT22;6291;48.924;12.204;2023-02-28T06:24:45;-2.40;99.90
12452;DHT22;6291;48.924;12.204;2023-02-28T06:29:52;-2.40;99.90
12452;DHT22;6291;48.924;12.204;2023-02-28T06:34:56;-2.30;99.90
12452;DHT22;6291;48.924;12.204;2023-02-28T06:40:01;-2.30;99.90
12452;DHT22;6291;48.924;12.204;2023-02-28T06:45:08;-1.20;99.90
12452;DHT22;6291;48.924;12.204;2023-02-28T06:50:12;-2.10;99.90
12452;DHT22;6291;48.924;12.204;2023-02-28T06:55:17;-1.20;99.90
12452;DHT22;6291;48.924;12.204;2023-02-28T07:00:21;-1.80;99.90
12452;DHT22;6291;48.924;12.204;2023-02-28T07:05:25;-1.70;99.90
12452;DHT22;6291;48.924;12.204;2023-02-28T07:10:31;-1.50;99.90
12452;DHT22;6291;48.924;12.204;2023-02-28T07:15:34;-1.30;99.90
12452;DHT22;6291;48.924;12.204;2023-02-28T07:20:42;-1.10;99.90
12452;DHT22;6291;48.924;12.204;2023-02-28T07:25:47;-0.90;99.90
12452;DHT22;6291;48.924;12.204;2023-02-28T07:30:51;-0.70;99.90
12452;DHT22;6291;48.924;12.204;2023-02-28T07:36:00;-0.50;99.90
12452;DHT22;6291;48.924;12.204;2023-02-28T07:41:05;-0.30;99.90
12452;DHT22;6291;48.924;12.204;2023-02-28T07:46:12;0.00;99.90
12452;DHT22;6291;48.924;12.204;2023-02-28T07:51:17;0.20;99.90
12452;DHT22;6291;48.924;12.204;2023-02-28T07:56:21;1.10;99.90
12452;DHT22;6291;48.924;12.204;2023-02-28T08:01:25;1.60;99.90
12452;DHT22;6291;48.924;12.204;2023-02-28T08:06:28;2.20;99.90
12452;DHT22;6291;48.924;12.204;2023-02-28T08:11:33;2.90;99.90
12452;DHT22;6291;48.924;12.204;2023-02-28T08:16:36;3.90;99.90
12452;DHT22;6291;48.924;12.204;2023-02-28T08:21:40;4.20;99.90
12452;DHT22;6291;48.924;12.204;2023-02-28T08:26:45;4.30;99.90
12452;DHT22;6291;48.924;12.204;2023-02-28T08:31:48;4.70;99.90
12452;DHT22;6291;48.924;12.204;2023-02-28T08:36:52;5.50;99.90
12452;DHT22;6291;48.924;12.204;2023-02-28T08:41:56;5.60;99.90
12452;DHT22;6291;48.924;12.204;2023-02-28T08:47:08;5.40;99.90
12452;DHT22;6291;48.924;12.204;2023-02-28T08:52:11;4.50;99.90
12452;DHT22;6291;48.924;12.204;2023-02-28T08:57:16;6.50;99.90
12452;DHT22;6291;48.924;12.204;2023-02-28T09:02:19;6.50;99.90
12452;DHT22;6291;48.924;12.204;2023-02-28T09:07:22;6.50;99.90
12452;DHT22;6291;48.924;12.204;2023-02-28T09:12:27;7.10;99.90
12452;DHT22;6291;48.924;12.204;2023-02-28T09:17:35;7.60;99.90
12452;DHT22;6291;48.924;12.204;2023-02-28T09:22:38;8.10;99.90
12452;DHT22;6291;48.924;12.204;2023-02-28T09:27:43;7.60;99.90
12452;DHT22;6291;48.924;12.204;2023-02-28T09:32:47;7.40;99.90
12452;DHT22;6291;48.924;12.204;2023-02-28T09:37:54;7.50;99.90
12452;DHT22;6291;48.924;12.204;2023-02-28T09:42:59;8.10;99.90
12452;DHT22;6291;48.924;12.204;2023-02-28T09:48:06;8.50;99.90
12452;DHT22;6291;48.924;12.204;2023-02-28T09:53:16;8.20;99.90
12452;DHT22;6291;48.924;12.204;2023-02-28T09:58:29;9.00;99.90
12452;DHT22;6291;48.924;12.204;2023-02-28T10:03:36;8.90;99.90
12452;DHT22;6291;48.924;12.204;2023-02-28T10:08:47;9.70;99.90
12452;DHT22;6291;48.924;12.204;2023-02-28T10:14:01;9.80;99.90
12452;DHT22;6291;48.924;12.204;2023-02-28T10:19:13;10.60;99.90
12452;DHT22;6291;48.924;12.204;2023-02-28T10:24:21;10.50;99.90
12452;DHT22;6291;48.924;12.204;2023-02-28T10:29:28;10.10;99.90
12452;DHT22;6291;48.924;12.204;2023-02-28T10:34:34;10.40;99.90
12452;DHT22;6291;48.924;12.204;2023-02-28T10:39:40;11.20;98.30
12452;DHT22;6291;48.924;12.204;2023-02-28T10:44:44;11.00;97.80
12452;DHT22;6291;48.924;12.204;2023-02-28T10:49:49;10.20;99.90
12452;DHT22;6291;48.924;12.204;2023-02-28T10:55:14;9.70;99.90
12452;DHT22;6291;48.924;12.204;2023-02-28T11:00:22;9.90;99.90
12452;DHT22;6291;48.924;12.204;2023-02-28T11:05:29;9.90;99.90
12452;DHT22;6291;48.924;12.204;2023-02-28T11:10:33;10.70;98.70
12452;DHT22;6291;48.924;12.204;2023-02-28T11:15:38;11.50;94.00
12452;DHT22;6291;48.924;12.204;2023-02-28T11:20:42;11.30;95.00
12452;DHT22;6291;48.924;12.204;2023-02-28T11:25:52;11.40;94.60
12452;DHT22;6291;48.924;12.204;2023-02-28T11:31:08;11.70;94.80
12452;DHT22;6291;48.924;12.204;2023-02-28T11:36:19;12.20;91.00
12452;DHT22;6291;48.924;12.204;2023-02-28T11:41:34;12.90;85.50
12452;DHT22;6291;48.924;12.204;2023-02-28T11:46:49;13.50;79.30
12452;DHT22;6291;48.924;12.204;2023-02-28T11:51:56;13.40;80.00
12452;DHT22;6291;48.924;12.204;2023-02-28T11:57:14;12.70;82.10
12452;DHT22;6291;48.924;12.204;2023-02-28T12:02:29;12.90;80.70
12452;DHT22;6291;48.924;12.204;2023-02-28T12:07:43;12.40;84.00
12452;DHT22;6291;48.924;12.204;2023-02-28T12:12:59;12.60;83.00
12452;DHT22;6291;48.924;12.204;2023-02-28T12:18:27;13.10;80.30
12452;DHT22;6291;48.924;12.204;2023-02-28T12:23:47;14.60;68.10
12452;DHT22;6291;48.924;12.204;2023-02-28T12:28:57;13.40;75.90
12452;DHT22;6291;48.924;12.204;2023-02-28T12:34:06;13.40;74.70
12452;DHT22;6291;48.924;12.204;2023-02-28T12:39:15;14.40;67.60
12452;DHT22;6291;48.924;12.204;2023-02-28T12:44:26;14.60;64.60
12452;DHT22;6291;48.924;12.204;2023-02-28T12:49:34;14.50;64.20
12452;DHT22;6291;48.924;12.204;2023-02-28T12:54:44;14.30;65.70
12452;DHT22;6291;48.924;12.204;2023-02-28T12:59:52;14.20;63.50
12452;DHT22;6291;48.924;12.204;2023-02-28T13:05:15;14.50;63.00
12452;DHT22;6291;48.924;12.204;2023-02-28T13:10:23;14.60;60.40
12452;DHT22;6291;48.924;12.204;2023-02-28T13:15:27;14.30;63.30
12452;DHT22;6291;48.924;12.204;2023-02-28T13:20:34;14.40;60.70
12452;DHT22;6291;48.924;12.204;2023-02-28T13:25:53;15.00;57.60
12452;DHT22;6291;48.924;12.204;2023-02-28T13:31:04;15.30;56.60
12452;DHT22;6291;48.924;12.204;2023-02-28T13:41:49;15.10;53.70
12452;DHT22;6291;48.924;12.204;2023-02-28T13:47:19;15.20;53.60
12452;DHT22;6291;48.924;12.204;2023-02-28T13:52:24;15.70;50.50
12452;DHT22;6291;48.924;12.204;2023-02-28T13:57:40;15.60;49.80
12452;DHT22;6291;48.924;12.204;2023-02-28T14:03:01;15.20;48.40
12452;DHT22;6291;48.924;12.204;2023-02-28T14:08:13;14.60;56.40
12452;DHT22;6291;48.924;12.204;2023-02-28T14:13:37;15.00;45.20
12452;DHT22;6291;48.924;12.204;2023-02-28T14:18:51;14.60;54.10
12452;DHT22;6291;48.924;12.204;2023-02-28T14:24:20;14.80;52.60
12452;DHT22;6291;48.924;12.204;2023-02-28T14:29:36;14.70;53.20
12452;DHT22;6291;48.924;12.204;2023-02-28T14:34:50;14.80;45.70
12452;DHT22;6291;48.924;12.204;2023-02-28T14:39:57;14.10;54.80
12452;DHT22;6291;48.924;12.204;2023-02-28T14:45:01;14.30;55.60
12452;DHT22;6291;48.924;12.204;2023-02-28T14:50:05;14.20;52.50
12452;DHT22;6291;48.924;12.204;2023-02-28T14:55:15;13.60;61.50
12452;DHT22;6291;48.924;12.204;2023-02-28T15:00:23;14.60;53.70
12452;DHT22;6291;48.924;12.204;2023-02-28T15:05:28;12.40;63.70
12452;DHT22;6291;48.924;12.204;2023-02-28T15:10:34;10.10;78.80
12452;DHT22;6291;48.924;12.204;2023-02-28T15:15:44;8.50;99.90
12452;DHT22;6291;48.924;12.204;2023-02-28T15:21:07;7.90;95.00
12452;DHT22;6291;48.924;12.204;2023-02-28T15:26:16;7.50;96.60
12452;DHT22;6291;48.924;12.204;2023-02-28T15:31:27;6.90;90.90
12452;DHT22;6291;48.924;12.204;2023-02-28T15:36:39;6.50;99.90
12452;DHT22;6291;48.924;12.204;2023-02-28T15:41:44;6.00;99.90
12452;DHT22;6291;48.924;12.204;2023-02-28T15:46:53;5.80;99.90
12452;DHT22;6291;48.924;12.204;2023-02-28T15:51:58;5.50;99.90
12452;DHT22;6291;48.924;12.204;2023-02-28T15:57:05;5.40;99.90
12452;DHT22;6291;48.924;12.204;2023-02-28T16:02:15;5.20;99.90
12452;DHT22;6291;48.924;12.204;2023-02-28T16:07:19;5.00;99.90
12452;DHT22;6291;48.924;12.204;2023-02-28T16:12:26;4.90;99.90
12452;DHT22;6291;48.924;12.204;2023-02-28T16:17:31;4.80;99.90
12452;DHT22;6291;48.924;12.204;2023-02-28T16:22:35;4.60;99.90
12452;DHT22;6291;48.924;12.204;2023-02-28T16:27:40;4.30;99.90
12452;DHT22;6291;48.924;12.204;2023-02-28T16:32:43;4.20;99.90
12452;DHT22;6291;48.924;12.204;2023-02-28T16:37:46;4.10;99.90
12452;DHT22;6291;48.924;12.204;2023-02-28T16:42:51;4.00;99.90
12452;DHT22;6291;48.924;12.204;2023-02-28T16:47:55;4.00;99.90
12452;DHT22;6291;48.924;12.204;2023-02-28T16:52:58;4.10;99.90
12452;DHT22;6291;48.924;12.204;2023-02-28T16:58:03;4.00;99.90
12452;DHT22;6291;48.924;12.204;2023-02-28T17:03:08;4.00;99.90
12452;DHT22;6291;48.924;12.204;2023-02-28T17:08:13;4.00;99.90
12452;DHT22;6291;48.924;12.204;2023-02-28T17:13:18;3.90;99.90
12452;DHT22;6291;48.924;12.204;2023-02-28T17:18:21;3.80;99.90
12452;DHT22;6291;48.924;12.204;2023-02-28T17:23:24;3.70;99.90
12452;DHT22;6291;48.924;12.204;2023-02-28T17:28:29;3.60;99.90
12452;DHT22;6291;48.924;12.204;2023-02-28T17:33:32;3.50;99.90
12452;DHT22;6291;48.924;12.204;2023-02-28T17:38:35;3.40;99.90
12452;DHT22;6291;48.924;12.204;2023-02-28T17:43:39;3.30;99.90
12452;DHT22;6291;48.924;12.204;2023-02-28T17:48:42;3.30;99.90
12452;DHT22;6291;48.924;12.204;2023-02-28T17:53:45;3.30;99.90
12452;DHT22;6291;48.924;12.204;2023-02-28T17:58:52;3.20;99.90
12452;DHT22;6291;48.924;12.204;2023-02-28T18:03:56;3.10;99.90
12452;DHT22;6291;48.924;12.204;2023-02-28T18:08:59;4.20;99.90
12452;DHT22;6291;48.924;12.204;2023-02-28T18:14:04;2.90;99.90
12452;DHT22;6291;48.924;12.204;2023-02-28T18:19:08;2.80;99.90
12452;DHT22;6291;48.924;12.204;2023-02-28T18:24:16;2.70;99.90
12452;DHT22;6291;48.924;12.204;2023-02-28T18:29:23;2.60;99.90
12452;DHT22;6291;48.924;12.204;2023-02-28T18:34:26;2.50;99.90
12452;DHT22;6291;48.924;12.204;2023-02-28T18:39:31;2.40;99.90
12452;DHT22;6291;48.924;12.204;2023-02-28T18:44:37;2.30;99.90
12452;DHT22;6291;48.924;12.204;2023-02-28T18:49:41;2.30;99.90
12452;DHT22;6291;48.924;12.204;2023-02-28T18:54:44;2.10;99.90
12452;DHT22;6291;48.924;12.204;2023-02-28T18:59:49;2.10;99.90
12452;DHT22;6291;48.924;12.204;2023-02-28T19:04:53;2.00;99.90
12452;DHT22;6291;48.924;12.204;2023-02-28T19:09:56;1.90;99.90
12452;DHT22;6291;48.924;12.204;2023-02-28T19:15:01;1.90;99.90
12452;DHT22;6291;48.924;12.204;2023-02-28T19:20:05;1.80;99.90
12452;DHT22;6291;48.924;12.204;2023-02-28T19:25:09;1.70;99.90
12452;DHT22;6291;48.924;12.204;2023-02-28T19:30:14;1.60;99.90
12452;DHT22;6291;48.924;12.204;2023-02-28T19:35:18;1.60;99.90
12452;DHT22;6291;48.924;12.204;2023-02-28T19:40:21;1.60;99.90
12452;DHT22;6291;48.924;12.204;2023-02-28T19:45:26;1.60;99.90
12452;DHT22;6291;48.924;12.204;2023-02-28T19:50:30;1.60;99.90
12452;DHT22;6291;48.924;12.204;2023-02-28T19:55:33;1.60;99.90
12452;DHT22;6291;48.924;12.204;2023-02-28T20:00:39;1.60;99.90
12452;DHT22;6291;48.924;12.204;2023-02-28T20:05:42;1.60;99.90
12452;DHT22;6291;48.924;12.204;2023-02-28T20:10:46;1.50;99.90
12452;DHT22;6291;48.924;12.204;2023-02-28T20:15:50;1.40;99.90
12452;DHT22;6291;48.924;12.204;2023-02-28T20:20:54;1.40;99.90
12452;DHT22;6291;48.924;12.204;2023-02-28T20:25:58;1.40;99.90
12452;DHT22;6291;48.924;12.204;2023-02-28T20:31:09;1.40;99.90
12452;DHT22;6291;48.924;12.204;2023-02-28T20:36:13;-1.00;99.90
12452;DHT22;6291;48.924;12.204;2023-02-28T20:41:17;1.40;99.90
12452;DHT22;6291;48.924;12.204;2023-02-28T20:46:22;1.30;99.90
12452;DHT22;6291;48.924;12.204;2023-02-28T20:51:26;1.20;99.90
12452;DHT22;6291;48.924;12.204;2023-02-28T20:56:29;1.20;99.90
12452;DHT22;6291;48.924;12.204;2023-02-28T21:01:34;1.20;99.90
12452;DHT22;6291;48.924;12.204;2023-02-28T21:06:39;1.30;99.90
12452;DHT22;6291;48.924;12.204;2023-02-28T21:11:44;1.30;99.90
12452;DHT22;6291;48.924;12.204;2023-02-28T21:16:49;1.30;99.90
12452;DHT22;6291;48.924;12.204;2023-02-28T21:21:53;1.30;99.90
12452;DHT22;6291;48.924;12.204;2023-02-28T21:26:57;2.60;99.90
12452;DHT22;6291;48.924;12.204;2023-02-28T21:32:04;1.40;99.90
12452;DHT22;6291;48.924;12.204;2023-02-28T21:37:10;1.40;99.90
12452;DHT22;6291;48.924;12.204;2023-02-28T21:42:14;1.40;99.90
12452;DHT22;6291;48.924;12.204;2023-02-28T21:47:19;1.50;99.90
12452;DHT22;6291;48.924;12.204;2023-02-28T21:52:22;1.50;99.90
12452;DHT22;6291;48.924;12.204;2023-02-28T21:57:26;1.50;99.90
12452;DHT22;6291;48.924;12.204;2023-02-28T22:02:31;1.50;99.90
12452;DHT22;6291;48.924;12.204;2023-02-28T22:07:34;1.50;99.90
12452;DHT22;6291;48.924;12.204;2023-02-28T22:12:37;1.50;99.90
12452;DHT22;6291;48.924;12.204;2023-02-28T22:17:42;1.50;99.90
12452;DHT22;6291;48.924;12.204;2023-02-28T22:22:46;1.50;99.90
12452;DHT22;6291;48.924;12.204;2023-02-28T22:27:49;1.50;99.90
12452;DHT22;6291;48.924;12.204;2023-02-28T22:32:53;1.40;99.90
12452;DHT22;6291;48.924;12.204;2023-02-28T22:37:57;1.40;99.90
12452;DHT22;6291;48.924;12.204;2023-02-28T22:43:00;1.40;99.90
12452;DHT22;6291;48.924;12.204;2023-02-28T22:48:06;1.40;99.90
12452;DHT22;6291;48.924;12.204;2023-02-28T22:53:12;1.40;99.90
12452;DHT22;6291;48.924;12.204;2023-02-28T22:58:15;1.40;99.90
12452;DHT22;6291;48.924;12.204;2023-02-28T23:03:21;2.50;99.90
12452;DHT22;6291;48.924;12.204;2023-02-28T23:08:29;1.40;99.90
12452;DHT22;6291;48.924;12.204;2023-02-28T23:13:33;1.40;99.90
12452;DHT22;6291;48.924;12.204;2023-02-28T23:18:37;1.30;99.90
12452;DHT22;6291;48.924;12.204;2023-02-28T23:23:41;1.40;99.90
12452;DHT22;6291;48.924;12.204;2023-02-28T23:28:44;1.30;99.90
12452;DHT22;6291;48.924;12.204;2023-02-28T23:33:49;1.20;99.90
12452;DHT22;6291;48.924;12.204;2023-02-28T23:38:53;1.10;99.90
12452;DHT22;6291;48.924;12.204;2023-02-28T23:43:56;1.00;99.90
12452;DHT22;6291;48.924;12.204;2023-02-28T23:49:01;0.90;99.90
12452;DHT22;6291;48.924;12.204;2023-02-28T23:54:04;0.80;99.90
12452;DHT22;6291;48.924;12.204;2023-02-28T23:59:08;0.60;99.90
